Favola — IBFH — position and weather

sailwx.info

Track history (hours):
 
Tides and Currents Weather Stations Pressure Air Temp Water Temp Dewpoint Dewpoint Depression Visibility Wind Speed Wind Dir Waves Ship Positions

Favola

Last reported at 2014-Nov-22 14:23 UTC. Time now 2014-Nov-23 12:06 UTC.
Position N 35°58' E 014°48'.

Length 180 m; draft 9.1 m.

Type: Ship (hazmat cat A). MMSI: 247069800.

Date/timePositionNaut miles runAvg speedWind from/ knotsBaromVisibWave heightAir tempDewpointWater temp
2014-Nov-22 14:23N 35°58' E 014°48'0 0.0
2014-Nov-22 09:29N 35°58' E 014°48'0 0.0
2014-Nov-22 01:14N 35°58' E 014°48'0 0.0
2014-Nov-22 00:29N 35°58' E 014°48'0 0.0
2014-Nov-21 23:14N 35°58' E 014°48'0 0.0
2014-Nov-21 22:14N 35°58' E 014°48'0 0.0
2014-Nov-21 21:32N 35°58' E 014°48'0 0.0
2014-Nov-21 17:13N 35°58' E 014°48'0 0.0
2014-Nov-21 16:25N 35°58' E 014°48'0 0.0
2014-Nov-21 15:22N 35°58' E 014°48'  
2014-Nov-19 03:05N 36°17' E 021°29'9011.9
2014-Nov-18 19:33N 36°31' E 023°19'1212.1
2014-Nov-18 18:32N 36°40' E 023°28'1211.8
2014-Nov-18 17:33N 36°50' E 023°36'1512.3
2014-Nov-18 16:20N 37°01' E 023°48'1212.3
2014-Nov-18 15:24N 37°10' E 023°58'1012.2
2014-Nov-18 14:33N 37°17' E 024°07'1211.5
2014-Nov-18 13:33N 37°26' E 024°17'1212.2
2014-Nov-18 12:33N 37°35' E 024°27'1212.0
2014-Nov-18 11:33N 37°46' E 024°32'2512.1
2014-Nov-18 09:29N 38°09' E 024°44'275 7.5
2014-Nov-16 20:32N 41°15' E 029°08'257 6.5
2014-Nov-15 05:12N 43°23' E 034°10'812.3
2014-Nov-15 04:33N 43°26' E 034°19'1212.3
2014-Nov-15 03:33N 43°32' E 034°35'1412.6
2014-Nov-15 02:28N 43°38' E 034°52'1212.6
2014-Nov-15 01:33N 43°43' E 035°06'1312.6
2014-Nov-15 00:33N 43°49' E 035°21'1312.6
2014-Nov-14 23:33N 43°55' E 035°36'1312.7
2014-Nov-14 22:33N 44°01' E 035°52'1312.7
2014-Nov-14 21:33N 44°07' E 036°08'1312.9
2014-Nov-14 20:33N 44°13' E 036°24'1212.1
2014-Nov-14 19:33N 44°25' E 036°29'  
Track history (hours):
 
Tides and Currents Weather Stations Pressure Air Temp Water Temp Dewpoint Dewpoint Depression Visibility Wind Speed Wind Dir Waves Ship Positions

Favola

Last reported at 2014-Nov-22 14:23 UTC. Time now 2014-Nov-23 12:06 UTC.
Position N 35°58' E 014°48'.

Length 180 m; draft 9.1 m.

Type: Ship (hazmat cat A). MMSI: 247069800.

Date/timePositionNaut miles runAvg speedWind from/ knotsBaromVisibWave heightAir tempDewpointWater temp
2014-Nov-22 14:23N 35°58' E 014°48'0 0.0
2014-Nov-22 09:29N 35°58' E 014°48'0 0.0
2014-Nov-22 01:14N 35°58' E 014°48'0 0.0
2014-Nov-22 00:29N 35°58' E 014°48'0 0.0
2014-Nov-21 23:14N 35°58' E 014°48'0 0.0
2014-Nov-21 22:14N 35°58' E 014°48'0 0.0
2014-Nov-21 21:32N 35°58' E 014°48'0 0.0
2014-Nov-21 17:13N 35°58' E 014°48'0 0.0
2014-Nov-21 16:25N 35°58' E 014°48'0 0.0
2014-Nov-21 15:22N 35°58' E 014°48'  
2014-Nov-19 03:05N 36°17' E 021°29'9011.9
2014-Nov-18 19:33N 36°31' E 023°19'1212.1
2014-Nov-18 18:32N 36°40' E 023°28'1211.8
2014-Nov-18 17:33N 36°50' E 023°36'1512.3
2014-Nov-18 16:20N 37°01' E 023°48'1212.3
2014-Nov-18 15:24N 37°10' E 023°58'1012.2
2014-Nov-18 14:33N 37°17' E 024°07'1211.5
2014-Nov-18 13:33N 37°26' E 024°17'1212.2
2014-Nov-18 12:33N 37°35' E 024°27'1212.0
2014-Nov-18 11:33N 37°46' E 024°32'2512.1
2014-Nov-18 09:29N 38°09' E 024°44'275 7.5
2014-Nov-16 20:32N 41°15' E 029°08'257 6.5
2014-Nov-15 05:12N 43°23' E 034°10'812.3
2014-Nov-15 04:33N 43°26' E 034°19'1212.3
2014-Nov-15 03:33N 43°32' E 034°35'1412.6
2014-Nov-15 02:28N 43°38' E 034°52'1212.6
2014-Nov-15 01:33N 43°43' E 035°06'1312.6
2014-Nov-15 00:33N 43°49' E 035°21'1312.6
2014-Nov-14 23:33N 43°55' E 035°36'1312.7
2014-Nov-14 22:33N 44°01' E 035°52'1312.7
2014-Nov-14 21:33N 44°07' E 036°08'1312.9
2014-Nov-14 20:33N 44°13' E 036°24'1212.1
2014-Nov-14 19:33N 44°25' E 036°29'  

Dump ship's entire track history